Bernard A — TCWN3 — position and weather

sailwx.info

Track history (hours):
 
Tides and Currents Weather Stations Pressure Air Temp Water Temp Dewpoint Dewpoint Depression Visibility Wind Speed Wind Dir Waves Ship Positions

Bernard A

Last reported at 2015-Mar-28 08:33 UTC. Time now 2015-Mar-28 11:09 UTC.
Position N 37°15' E 024°54'.

Length 184 m; draft 8.7 m.

Type: Ship (hazmat cat A). MMSI: 271040008.

Date/timePositionNaut miles runAvg speedWind from/ knotsBaromVisibWave heightAir tempDewpointWater temp
2015-Mar-28 08:33N 37°15' E 024°54'1111.4
2015-Mar-28 07:34N 37°15' E 025°08'1111.3
2015-Mar-28 06:33N 37°16' E 025°22'1411.8
2015-Mar-28 05:22N 37°14' E 025°40'  
2015-Mar-25 03:22N 33°08' E 033°45'1312.1
2015-Mar-25 02:16N 33°06' E 034°01'911.9
2015-Mar-25 01:32N 33°04' E 034°11'1111.6
2015-Mar-25 00:33N 33°01' E 034°24'1111.2
2015-Mar-24 23:33N 32°57' E 034°37'1111.5
2015-Mar-24 22:33N 32°54' E 034°50'5 0.2
2015-Mar-24 03:03N 32°54' E 034°44'38 8.4
2015-Mar-23 22:31N 33°26' E 034°18'  
2015-Mar-20 23:10N 37°37' E 025°45'914.7
2015-Mar-20 22:34N 37°43' E 025°36'1615.1
2015-Mar-20 21:32N 37°54' E 025°22'  
2015-Mar-18 13:27N 37°36' E 023°57'1415.3
2015-Mar-18 12:33N 37°42' E 023°42'1515.2
2015-Mar-18 11:33N 37°56' E 023°36'1 1.2
2015-Mar-18 10:33N 37°57' E 023°35'0 0.0
2015-Mar-18 09:33N 37°57' E 023°35'  
Track history (hours):
 
Tides and Currents Weather Stations Pressure Air Temp Water Temp Dewpoint Dewpoint Depression Visibility Wind Speed Wind Dir Waves Ship Positions

Bernard A

Last reported at 2015-Mar-28 08:33 UTC. Time now 2015-Mar-28 11:09 UTC.
Position N 37°15' E 024°54'.

Length 184 m; draft 8.7 m.

Type: Ship (hazmat cat A). MMSI: 271040008.

Date/timePositionNaut miles runAvg speedWind from/ knotsBaromVisibWave heightAir tempDewpointWater temp
2015-Mar-28 08:33N 37°15' E 024°54'1111.4
2015-Mar-28 07:34N 37°15' E 025°08'1111.3
2015-Mar-28 06:33N 37°16' E 025°22'1411.8
2015-Mar-28 05:22N 37°14' E 025°40'  
2015-Mar-25 03:22N 33°08' E 033°45'1312.1
2015-Mar-25 02:16N 33°06' E 034°01'911.9
2015-Mar-25 01:32N 33°04' E 034°11'1111.6
2015-Mar-25 00:33N 33°01' E 034°24'1111.2
2015-Mar-24 23:33N 32°57' E 034°37'1111.5
2015-Mar-24 22:33N 32°54' E 034°50'5 0.2
2015-Mar-24 03:03N 32°54' E 034°44'38 8.4
2015-Mar-23 22:31N 33°26' E 034°18'  
2015-Mar-20 23:10N 37°37' E 025°45'914.7
2015-Mar-20 22:34N 37°43' E 025°36'1615.1
2015-Mar-20 21:32N 37°54' E 025°22'  
2015-Mar-18 13:27N 37°36' E 023°57'1415.3
2015-Mar-18 12:33N 37°42' E 023°42'1515.2
2015-Mar-18 11:33N 37°56' E 023°36'1 1.2
2015-Mar-18 10:33N 37°57' E 023°35'0 0.0
2015-Mar-18 09:33N 37°57' E 023°35'  

Dump ship's entire track history